Time;durP1;ratioP1;P1;durP2;ratioP2;P2;SDS_P1;SDS_P2;PMS_P1;PMS_P2;Temp;Humidity;BMP_temperature;BMP_pressure;BME280_temperature;BME280_humidity;BME280_pressure;Samples;Min_cycle;Max_cycle;Signal;HPM_P1;HPM_P2
2022/10/05 00:02:12;;;;;;;;;;;18.30;67.90;;;;;;5033470;28;20263;-82
2022/10/05 00:04:38;;;;;;;;;;;18.40;68.00;;;;;;5032979;28;19920;-81
2022/10/05 00:07:15;;;;;;;;;;;18.30;67.90;;;;;;5048413;28;19923;-81
2022/10/05 00:09:41;;;;;;;;;;;18.40;68.00;;;;;;5032926;28;20276;-81
2022/10/05 00:12:17;;;;;;;;;;;18.40;68.00;;;;;;5016879;28;19921;-81
2022/10/05 00:14:44;;;;;;;;;;;18.30;68.00;;;;;;5032976;28;19917;-81
2022/10/05 00:17:20;;;;;;;;;;;18.30;68.00;;;;;;5032658;28;19971;-81
2022/10/05 00:19:50;;;;;;;;;;;18.30;68.00;;;;;;5032395;28;19913;-81
2022/10/05 00:22:19;;;;;;;;;;;18.30;68.00;;;;;;5034120;28;20004;-81
2022/10/05 00:24:45;;;;;;;;;;;18.30;68.00;;;;;;5033582;28;19913;-82
2022/10/05 00:27:18;;;;;;;;;;;18.30;68.00;;;;;;5032701;28;19963;-81
2022/10/05 00:29:45;;;;;;;;;;;18.30;68.00;;;;;;5048814;28;19925;-81
2022/10/05 00:32:10;;;;;;;;;;;18.30;68.00;;;;;;5033391;28;19921;-81
2022/10/05 00:34:37;;;;;;;;;;;18.30;68.00;;;;;;5015850;28;19917;-81
2022/10/05 00:37:03;;;;;;;;;;;18.30;68.00;;;;;;5032334;28;19913;-81
2022/10/05 00:39:28;;;;;;;;;;;18.30;68.00;;;;;;5032013;28;19972;-81
2022/10/05 00:42:03;;;;;;;;;;;18.30;68.00;;;;;;5032513;28;19956;-81
2022/10/05 00:44:48;;;;;;;;;;;18.30;68.00;;;;;;5033884;28;19913;-80
2022/10/05 00:47:23;;;;;;;;;;;18.30;68.00;;;;;;5032119;28;19917;-80
2022/10/05 00:49:59;;;;;;;;;;;18.30;68.00;;;;;;5032278;28;19913;-81
2022/10/05 00:52:40;;;;;;;;;;;18.30;68.00;;;;;;5032213;28;19921;-81
2022/10/05 00:55:09;;;;;;;;;;;18.30;68.00;;;;;;5048853;28;20358;-80
2022/10/05 00:57:35;;;;;;;;;;;18.30;68.00;;;;;;5032474;28;19964;-81
2022/10/05 01:00:03;;;;;;;;;;;18.20;68.00;;;;;;5048793;28;19913;-81
2022/10/05 01:02:34;;;;;;;;;;;18.30;68.00;;;;;;5032407;28;19909;-82
2022/10/05 01:05:05;;;;;;;;;;;18.30;68.00;;;;;;5031642;28;19913;-81
2022/10/05 01:07:40;;;;;;;;;;;18.30;68.20;;;;;;5048782;28;19928;-82
2022/10/05 01:10:09;;;;;;;;;;;18.20;68.00;;;;;;5032200;28;19913;-81
2022/10/05 01:12:49;;;;;;;;;;;18.30;68.00;;;;;;5048771;28;20257;-82
2022/10/05 01:15:18;;;;;;;;;;;18.30;68.00;;;;;;5033776;28;19913;-82
2022/10/05 01:17:44;;;;;;;;;;;18.20;68.00;;;;;;5032953;28;20012;-81
2022/10/05 01:20:13;;;;;;;;;;;18.20;68.00;;;;;;5052106;28;20349;-81
2022/10/05 01:22:57;;;;;;;;;;;18.20;68.00;;;;;;5052889;28;19913;-81
2022/10/05 01:25:41;;;;;;;;;;;18.20;68.00;;;;;;5037006;28;19913;-82
2022/10/05 01:28:23;;;;;;;;;;;18.20;68.00;;;;;;5036756;28;19913;-81
2022/10/05 01:30:53;;;;;;;;;;;18.20;68.00;;;;;;5035199;28;19927;-82
2022/10/05 01:33:32;;;;;;;;;;;18.20;68.00;;;;;;5035220;28;19945;-81
2022/10/05 01:36:05;;;;;;;;;;;18.20;68.00;;;;;;5036679;28;20027;-82
2022/10/05 01:38:37;;;;;;;;;;;18.20;68.00;;;;;;5036927;28;19913;-81
2022/10/05 01:41:22;;;;;;;;;;;18.20;68.00;;;;;;5035948;28;19919;-82
2022/10/05 01:43:56;;;;;;;;;;;18.20;68.00;;;;;;5035413;28;20006;-80
2022/10/05 01:46:42;;;;;;;;;;;18.20;68.00;;;;;;5035752;28;19913;-81
2022/10/05 01:49:15;;;;;;;;;;;18.20;68.00;;;;;;5051829;28;20384;-82
2022/10/05 01:51:57;;;;;;;;;;;18.20;68.00;;;;;;5035728;28;20067;-82
2022/10/05 01:54:41;;;;;;;;;;;18.20;68.00;;;;;;5035610;28;20002;-82
2022/10/05 01:57:26;;;;;;;;;;;18.20;68.00;;;;;;5051397;28;19939;-82
2022/10/05 02:00:05;;;;;;;;;;;18.20;68.00;;;;;;5035104;28;19996;-82
2022/10/05 02:02:57;;;;;;;;;;;18.20;68.00;;;;;;5036129;28;19924;-82
2022/10/05 02:05:27;;;;;;;;;;;18.20;68.00;;;;;;5034765;28;20229;-82
2022/10/05 02:07:56;;;;;;;;;;;18.20;68.00;;;;;;5034807;28;19913;-81
2022/10/05 02:10:24;;;;;;;;;;;18.20;68.00;;;;;;5051191;28;19952;-81
2022/10/05 02:12:54;;;;;;;;;;;18.20;68.00;;;;;;5036448;28;19910;-82
2022/10/05 02:15:26;;;;;;;;;;;18.20;68.00;;;;;;5034627;28;19920;-82
2022/10/05 02:17:55;;;;;;;;;;;18.20;68.00;;;;;;5034441;28;20011;-81
2022/10/05 02:20:23;;;;;;;;;;;18.20;68.00;;;;;;5035176;28;19916;-81
2022/10/05 02:22:54;;;;;;;;;;;18.20;68.00;;;;;;5034608;28;19920;-81
2022/10/05 02:25:23;;;;;;;;;;;18.20;68.00;;;;;;5028477;28;20016;-81
2022/10/05 02:28:10;;;;;;;;;;;18.20;68.00;;;;;;5034518;28;19913;-81
2022/10/05 02:30:40;;;;;;;;;;;18.20;68.00;;;;;;5032962;28;19928;-81
2022/10/05 02:33:09;;;;;;;;;;;18.20;68.00;;;;;;5050379;28;19913;-81
2022/10/05 02:35:35;;;;;;;;;;;18.20;68.00;;;;;;5034215;28;19915;-80
2022/10/05 02:38:18;;;;;;;;;;;18.20;68.00;;;;;;5034343;28;20441;-81
2022/10/05 02:40:53;;;;;;;;;;;18.20;68.00;;;;;;5034765;28;20016;-81
2022/10/05 02:43:39;;;;;;;;;;;18.10;68.60;;;;;;5050801;28;19933;-81
2022/10/05 02:46:16;;;;;;;;;;;18.10;67.90;;;;;;5051263;28;19913;-81
2022/10/05 02:49:04;;;;;;;;;;;18.10;68.00;;;;;;5050660;28;19944;-81
2022/10/05 02:51:53;;;;;;;;;;;18.10;68.00;;;;;;5034132;28;19928;-80
2022/10/05 02:54:19;;;;;;;;;;;18.20;68.00;;;;;;5034152;28;20250;-81
2022/10/05 02:57:08;;;;;;;;;;;18.10;68.00;;;;;;5034535;28;19910;-81
2022/10/05 02:59:52;;;;;;;;;;;18.10;68.00;;;;;;5033943;28;19924;-81
2022/10/05 03:02:25;;;;;;;;;;;18.10;68.00;;;;;;5034005;28;19967;-81
2022/10/05 03:05:05;;;;;;;;;;;18.10;68.00;;;;;;5050112;28;19913;-81
2022/10/05 03:07:54;;;;;;;;;;;18.10;68.00;;;;;;5050447;28;19963;-80
2022/10/05 03:10:38;;;;;;;;;;;18.10;68.00;;;;;;5034272;28;20500;-80
2022/10/05 03:13:07;;;;;;;;;;;18.10;68.00;;;;;;5049927;28;19917;-81
2022/10/05 03:15:48;;;;;;;;;;;18.00;67.90;;;;;;5033380;28;19917;-81
2022/10/05 03:18:22;;;;;;;;;;;18.10;68.00;;;;;;5049523;28;19963;-81
2022/10/05 03:21:00;;;;;;;;;;;18.10;68.00;;;;;;5033632;28;19913;-81
2022/10/05 03:23:46;;;;;;;;;;;18.00;68.00;;;;;;5049793;28;19913;-81
2022/10/05 03:26:18;;;;;;;;;;;18.00;68.00;;;;;;5003028;28;19979;-82
2022/10/05 03:28:59;;;;;;;;;;;18.00;68.00;;;;;;5033116;28;20020;-82
2022/10/05 03:31:32;;;;;;;;;;;18.00;68.00;;;;;;5049917;28;19925;-81
2022/10/05 03:34:00;;;;;;;;;;;18.00;68.00;;;;;;5033275;28;20346;-82
2022/10/05 03:36:41;;;;;;;;;;;18.00;68.00;;;;;;5033218;28;19956;-81
2022/10/05 03:39:19;;;;;;;;;;;18.00;68.00;;;;;;5049830;28;20011;-81
2022/10/05 03:41:47;;;;;;;;;;;18.00;68.00;;;;;;5032674;28;19914;-81
2022/10/05 03:44:17;;;;;;;;;;;18.00;68.00;;;;;;5033667;28;20003;-81
2022/10/05 03:46:44;;;;;;;;;;;18.00;68.00;;;;;;5032528;28;19967;-81
2022/10/05 03:49:22;;;;;;;;;;;18.00;68.00;;;;;;5033090;28;19913;-81
2022/10/05 03:51:50;;;;;;;;;;;18.00;68.00;;;;;;5033406;28;20015;-81
2022/10/05 03:54:29;;;;;;;;;;;18.00;68.00;;;;;;5032629;28;20380;-82
2022/10/05 03:57:04;;;;;;;;;;;18.00;68.00;;;;;;5049579;28;19920;-81
2022/10/05 03:59:39;;;;;;;;;;;18.00;68.10;;;;;;5032653;28;19944;-81
2022/10/05 04:02:08;;;;;;;;;;;18.00;68.00;;;;;;5033856;28;19913;-82
2022/10/05 04:04:37;;;;;;;;;;;17.90;68.00;;;;;;5032678;28;19920;-82
2022/10/05 04:07:04;;;;;;;;;;;18.00;68.10;;;;;;5032802;28;19913;-81
2022/10/05 04:09:33;;;;;;;;;;;18.00;68.10;;;;;;5016122;28;20274;-82
2022/10/05 04:12:09;;;;;;;;;;;18.00;68.10;;;;;;5049235;28;19928;-81
2022/10/05 04:15:01;;;;;;;;;;;17.90;68.00;;;;;;5032817;28;19913;-82
2022/10/05 04:17:32;;;;;;;;;;;17.90;68.10;;;;;;5030275;28;19913;-81
2022/10/05 04:20:04;;;;;;;;;;;17.90;68.00;;;;;;5032615;28;19913;-82
2022/10/05 04:22:36;;;;;;;;;;;17.90;68.00;;;;;;5032311;28;19916;-82
2022/10/05 04:25:06;;;;;;;;;;;18.00;68.10;;;;;;5032855;28;19909;-81
2022/10/05 04:27:38;;;;;;;;;;;17.90;68.00;;;;;;5049706;28;20235;-82
2022/10/05 04:30:07;;;;;;;;;;;17.90;68.00;;;;;;5031956;28;19934;-82
2022/10/05 04:32:38;;;;;;;;;;;17.90;68.10;;;;;;5049070;28;19918;-82
2022/10/05 04:35:24;;;;;;;;;;;17.90;68.10;;;;;;5049118;28;19920;-82
2022/10/05 04:37:52;;;;;;;;;;;17.90;68.10;;;;;;5032289;28;19919;-82
2022/10/05 04:40:31;;;;;;;;;;;17.90;68.10;;;;;;5049067;28;19916;-82
2022/10/05 04:43:14;;;;;;;;;;;17.90;68.10;;;;;;5048964;28;19919;-81
2022/10/05 04:45:40;;;;;;;;;;;17.90;68.10;;;;;;5049377;28;19917;-83
2022/10/05 04:48:24;;;;;;;;;;;17.90;68.10;;;;;;5049887;28;19932;-83
2022/10/05 04:50:59;;;;;;;;;;;17.90;68.10;;;;;;5033015;28;19970;-81
2022/10/05 04:53:43;;;;;;;;;;;17.90;68.10;;;;;;5032053;28;19921;-80
2022/10/05 04:56:11;;;;;;;;;;;17.90;68.10;;;;;;5036004;28;19963;-82
2022/10/05 04:58:41;;;;;;;;;;;17.90;68.10;;;;;;5035920;28;19914;-80
2022/10/05 05:01:27;;;;;;;;;;;17.90;68.10;;;;;;5035741;28;19921;-80
2022/10/05 05:04:04;;;;;;;;;;;17.90;68.10;;;;;;5036446;28;19982;-79
2022/10/05 05:06:30;;;;;;;;;;;17.90;68.10;;;;;;5036446;28;19913;-79
2022/10/05 05:09:14;;;;;;;;;;;17.90;68.10;;;;;;5035748;28;19916;-80
2022/10/05 05:11:53;;;;;;;;;;;17.90;68.10;;;;;;5052060;28;19917;-79
2022/10/05 05:14:41;;;;;;;;;;;17.90;68.10;;;;;;5035501;28;19917;-79
2022/10/05 05:17:25;;;;;;;;;;;17.90;68.20;;;;;;5035420;28;19913;-79
2022/10/05 05:20:13;;;;;;;;;;;17.90;68.20;;;;;;5035488;28;19909;-79
2022/10/05 05:22:39;;;;;;;;;;;17.90;68.20;;;;;;5051826;28;19920;-80
2022/10/05 05:25:18;;;;;;;;;;;17.80;68.10;;;;;;5035069;28;19909;-80
2022/10/05 05:27:44;;;;;;;;;;;17.90;68.20;;;;;;5034719;28;19982;-80
2022/10/05 05:30:23;;;;;;;;;;;17.90;68.20;;;;;;5052222;28;19928;-80
2022/10/05 05:32:53;;;;;;;;;;;17.90;68.20;;;;;;5051827;28;19913;-80
2022/10/05 05:35:38;;;;;;;;;;;17.80;68.10;;;;;;5051852;28;20007;-80
2022/10/05 05:38:18;;;;;;;;;;;17.90;68.20;;;;;;5051783;28;20369;-80
2022/10/05 05:41:02;;;;;;;;;;;17.90;68.20;;;;;;5035468;28;19917;-80
2022/10/05 05:43:42;;;;;;;;;;;17.90;68.20;;;;;;5035284;28;20366;-80
2022/10/05 05:46:21;;;;;;;;;;;17.80;68.10;;;;;;5051980;28;19963;-80
2022/10/05 05:48:48;;;;;;;;;;;17.90;68.20;;;;;;5035027;28;19920;-80
2022/10/05 05:51:17;;;;;;;;;;;17.80;68.20;;;;;;5018591;28;19924;-80
2022/10/05 05:53:45;;;;;;;;;;;17.80;68.20;;;;;;5035673;28;20278;-80
2022/10/05 05:56:15;;;;;;;;;;;17.80;68.10;;;;;;5035106;28;19909;-80
2022/10/05 05:58:55;;;;;;;;;;;17.90;68.20;;;;;;5034864;28;19991;-80
2022/10/05 06:01:44;;;;;;;;;;;17.80;68.20;;;;;;5034794;28;19913;-80
2022/10/05 06:04:30;;;;;;;;;;;17.80;68.20;;;;;;5026409;28;19967;-80
2022/10/05 06:06:56;;;;;;;;;;;17.80;68.10;;;;;;5017589;28;19913;-80
2022/10/05 06:09:27;;;;;;;;;;;17.90;68.20;;;;;;5036073;28;19909;-80
2022/10/05 06:12:06;;;;;;;;;;;17.90;68.20;;;;;;5035223;28;19939;-80
2022/10/05 06:14:36;;;;;;;;;;;17.90;68.20;;;;;;5034488;28;20503;-80
2022/10/05 06:17:05;;;;;;;;;;;17.90;68.20;;;;;;5034377;28;19913;-80
2022/10/05 06:19:32;;;;;;;;;;;17.80;68.20;;;;;;5034416;28;19909;-80
2022/10/05 06:22:17;;;;;;;;;;;17.80;68.20;;;;;;5034104;28;19913;-80
2022/10/05 06:24:47;;;;;;;;;;;17.80;68.20;;;;;;5050990;28;19921;-81
2022/10/05 06:27:26;;;;;;;;;;;17.80;68.20;;;;;;5050981;28;19917;-80
2022/10/05 06:29:57;;;;;;;;;;;17.80;68.20;;;;;;5033844;28;19921;-80
2022/10/05 06:32:28;;;;;;;;;;;17.80;68.20;;;;;;5050853;28;19921;-81
2022/10/05 06:34:58;;;;;;;;;;;17.90;68.20;;;;;;5034514;28;19917;-80
2022/10/05 06:37:36;;;;;;;;;;;17.80;68.20;;;;;;5034738;28;19923;-80
2022/10/05 06:40:22;;;;;;;;;;;17.80;68.20;;;;;;5034090;28;20055;-78
2022/10/05 06:42:48;;;;;;;;;;;17.80;68.20;;;;;;5034052;28;20272;-82
2022/10/05 06:45:55;;;;;;;;;;;17.80;68.20;;;;;;5035587;28;20250;-81
2022/10/05 06:49:05;;;;;;;;;;;17.80;68.20;;;;;;5050962;28;19913;-83
2022/10/05 06:51:54;;;;;;;;;;;17.80;68.20;;;;;;5034087;28;19917;-79
2022/10/05 06:54:35;;;;;;;;;;;17.80;68.20;;;;;;5034627;28;19983;-81
2022/10/05 06:57:20;;;;;;;;;;;17.80;68.20;;;;;;5050994;28;19957;-82
2022/10/05 07:00:00;;;;;;;;;;;17.80;68.20;;;;;;5050435;28;19971;-81
2022/10/05 07:03:01;;;;;;;;;;;17.80;68.20;;;;;;5034550;28;19928;-82
2022/10/05 07:05:45;;;;;;;;;;;17.80;68.20;;;;;;4977226;28;19954;-82
2022/10/05 07:08:11;;;;;;;;;;;17.80;68.20;;;;;;5029241;28;19945;-80
2022/10/05 07:10:50;;;;;;;;;;;17.80;68.20;;;;;;5050086;28;20013;-81
2022/10/05 07:13:31;;;;;;;;;;;17.80;68.20;;;;;;5033920;28;19917;-81
2022/10/05 07:16:03;;;;;;;;;;;17.90;68.30;;;;;;5033748;28;19988;-81
2022/10/05 07:18:41;;;;;;;;;;;17.80;68.20;;;;;;5049870;28;19991;-79
2022/10/05 07:21:27;;;;;;;;;;;17.80;68.20;;;;;;5034285;28;19913;-81
2022/10/05 07:24:01;;;;;;;;;;;17.80;68.20;;;;;;5033811;28;19920;-81
2022/10/05 07:26:40;;;;;;;;;;;17.80;68.20;;;;;;5033722;28;20012;-81
2022/10/05 07:29:06;;;;;;;;;;;17.80;68.20;;;;;;5049974;28;19929;-81
2022/10/05 07:31:44;;;;;;;;;;;17.90;68.20;;;;;;5033930;28;20338;-81
2022/10/05 07:34:29;;;;;;;;;;;17.90;68.20;;;;;;5033934;28;20373;-81
2022/10/05 07:39:51;;;;;;;;;;;17.90;68.20;;;;;;5049890;28;19913;-81
2022/10/05 07:42:23;;;;;;;;;;;17.90;68.20;;;;;;5049545;28;19920;-81
2022/10/05 07:44:52;;;;;;;;;;;17.90;68.20;;;;;;5049889;28;19917;-82
2022/10/05 07:47:23;;;;;;;;;;;17.80;68.20;;;;;;5032856;28;19960;-82
2022/10/05 07:49:56;;;;;;;;;;;17.90;68.20;;;;;;5033495;28;19913;-82
2022/10/05 07:52:28;;;;;;;;;;;17.90;68.20;;;;;;5033002;28;20010;-82
2022/10/05 07:54:58;;;;;;;;;;;17.90;68.20;;;;;;5049533;28;19928;-81
2022/10/05 07:57:30;;;;;;;;;;;17.90;68.20;;;;;;5033116;28;19943;-81
2022/10/05 08:00:02;;;;;;;;;;;17.90;68.20;;;;;;5049246;28;19913;-81
2022/10/05 08:02:57;;;;;;;;;;;17.90;68.20;;;;;;5034134;28;20405;-80
2022/10/05 08:05:28;;;;;;;;;;;17.90;68.20;;;;;;5049563;28;19960;-81
2022/10/05 08:08:02;;;;;;;;;;;17.90;68.20;;;;;;5032999;28;19924;-81
2022/10/05 08:10:30;;;;;;;;;;;17.90;68.20;;;;;;5032693;28;19917;-81
2022/10/05 08:13:01;;;;;;;;;;;17.90;68.20;;;;;;5049613;28;19975;-81
2022/10/05 08:15:38;;;;;;;;;;;17.90;68.20;;;;;;5033767;28;20008;-81
2022/10/05 08:18:10;;;;;;;;;;;17.90;68.20;;;;;;5033228;28;19924;-81
2022/10/05 08:20:38;;;;;;;;;;;18.00;68.20;;;;;;5033543;28;20254;-81
2022/10/05 08:23:04;;;;;;;;;;;18.00;68.20;;;;;;5033957;28;20003;-81
2022/10/05 08:25:37;;;;;;;;;;;18.00;68.20;;;;;;5032706;28;20006;-82
2022/10/05 08:28:05;;;;;;;;;;;18.00;68.20;;;;;;5034285;28;19968;-81
2022/10/05 08:30:34;;;;;;;;;;;18.00;68.20;;;;;;5035911;28;19924;-79
2022/10/05 08:33:19;;;;;;;;;;;18.00;68.20;;;;;;5037587;28;19975;-81
2022/10/05 08:35:49;;;;;;;;;;;18.00;68.10;;;;;;5020906;28;19961;-81
2022/10/05 08:38:21;;;;;;;;;;;18.00;68.10;;;;;;5036663;28;19918;-81
2022/10/05 08:40:50;;;;;;;;;;;18.10;68.20;;;;;;5037480;28;19967;-81
2022/10/05 08:43:28;;;;;;;;;;;18.00;68.10;;;;;;5052913;28;20285;-81
2022/10/05 08:46:06;;;;;;;;;;;18.00;68.10;;;;;;5037705;28;19919;-81
2022/10/05 08:48:40;;;;;;;;;;;18.00;68.10;;;;;;5037117;28;19963;-81
2022/10/05 08:51:11;;;;;;;;;;;18.10;68.10;;;;;;5036440;28;20353;-80
2022/10/05 08:53:48;;;;;;;;;;;18.10;68.10;;;;;;5036653;28;19924;-81
2022/10/05 08:56:28;;;;;;;;;;;18.10;68.10;;;;;;5037270;28;19967;-81
2022/10/05 08:58:59;;;;;;;;;;;18.10;68.10;;;;;;5036255;28;19992;-81
2022/10/05 09:01:44;;;;;;;;;;;18.10;68.10;;;;;;5052795;28;19913;-81
2022/10/05 09:04:09;;;;;;;;;;;18.10;68.00;;;;;;5052938;28;19936;-81
2022/10/05 09:07:01;;;;;;;;;;;18.20;68.10;;;;;;5036056;28;20346;-81
2022/10/05 09:09:33;;;;;;;;;;;18.20;68.10;;;;;;5036752;28;19952;-81
2022/10/05 09:12:17;;;;;;;;;;;18.20;68.10;;;;;;5036623;28;19921;-81
2022/10/05 09:14:51;;;;;;;;;;;18.20;68.00;;;;;;5036018;28;19917;-81
2022/10/05 09:17:20;;;;;;;;;;;18.20;68.10;;;;;;5036058;28;19913;-81
2022/10/05 09:19:45;;;;;;;;;;;18.30;68.10;;;;;;5035757;28;19909;-81
2022/10/05 09:22:11;;;;;;;;;;;18.30;68.00;;;;;;5035653;28;19913;-81
2022/10/05 09:24:49;;;;;;;;;;;18.30;68.00;;;;;;5052363;28;20414;-81
2022/10/05 09:27:16;;;;;;;;;;;18.30;68.00;;;;;;5035399;28;19952;-81
2022/10/05 09:29:45;;;;;;;;;;;18.40;68.10;;;;;;5034473;28;20276;-81
2022/10/05 09:32:26;;;;;;;;;;;18.40;68.00;;;;;;5051368;28;19913;-81
2022/10/05 09:35:11;;;;;;;;;;;18.40;68.00;;;;;;5050945;28;19924;-82
2022/10/05 09:37:47;;;;;;;;;;;18.40;67.90;;;;;;5035677;28;19913;-82
2022/10/05 09:40:28;;;;;;;;;;;18.50;68.00;;;;;;5033886;28;19914;-82
2022/10/05 09:43:06;;;;;;;;;;;18.50;68.00;;;;;;5036105;28;19913;-81
2022/10/05 09:45:34;;;;;;;;;;;18.60;68.00;;;;;;5034404;28;20003;-83
2022/10/05 09:48:09;;;;;;;;;;;18.50;67.90;;;;;;5050762;28;20351;-82
2022/10/05 09:50:58;;;;;;;;;;;18.60;67.90;;;;;;5035175;28;19965;-83
2022/10/05 09:53:43;;;;;;;;;;;18.60;67.90;;;;;;5051254;28;19921;-83
2022/10/05 09:56:19;;;;;;;;;;;18.70;67.90;;;;;;5034449;28;19921;-82
2022/10/05 09:58:48;;;;;;;;;;;18.70;67.90;;;;;;5034573;28;20011;-81
2022/10/05 10:01:33;;;;;;;;;;;18.70;67.90;;;;;;5034211;28;19916;-82
2022/10/05 10:04:05;;;;;;;;;;;18.80;67.90;;;;;;5035853;28;19913;-81
2022/10/05 10:06:43;;;;;;;;;;;18.80;67.90;;;;;;5050343;28;19920;-82
2022/10/05 10:09:26;;;;;;;;;;;18.80;67.90;;;;;;5050638;28;20389;-80
2022/10/05 10:12:10;;;;;;;;;;;18.80;67.80;;;;;;5034472;28;19917;-81
2022/10/05 10:14:54;;;;;;;;;;;18.90;67.90;;;;;;5034487;28;19917;-79
2022/10/05 10:17:39;;;;;;;;;;;18.90;67.90;;;;;;5050104;28;19913;-81
2022/10/05 10:20:12;;;;;;;;;;;19.00;67.90;;;;;;5050332;28;19917;-81
2022/10/05 10:22:40;;;;;;;;;;;19.00;67.90;;;;;;5034575;28;20377;-82
2022/10/05 10:25:06;;;;;;;;;;;19.10;67.90;;;;;;5050582;28;19966;-81
2022/10/05 10:27:42;;;;;;;;;;;19.00;67.80;;;;;;5050048;28;19912;-82
2022/10/05 10:30:07;;;;;;;;;;;19.10;67.90;;;;;;4972374;28;1848116;-81
2022/10/05 10:32:51;;;;;;;;;;;19.10;67.80;;;;;;5018676;28;19917;-83
2022/10/05 10:35:20;;;;;;;;;;;19.20;67.90;;;;;;5034472;28;19921;-81
2022/10/05 10:37:57;;;;;;;;;;;19.20;67.90;;;;;;5034245;28;19913;-80
2022/10/05 10:40:29;;;;;;;;;;;19.30;67.90;;;;;;5035547;28;19960;-80
2022/10/05 10:42:55;;;;;;;;;;;19.30;67.90;;;;;;5050564;28;19959;-80
2022/10/05 10:45:35;;;;;;;;;;;19.30;67.80;;;;;;5035837;28;19963;-83
2022/10/05 10:48:03;;;;;;;;;;;19.40;67.90;;;;;;5035075;28;20401;-81
2022/10/05 10:50:47;;;;;;;;;;;19.40;67.80;;;;;;5034026;28;19910;-81
2022/10/05 10:53:19;;;;;;;;;;;19.50;67.90;;;;;;5032926;28;19952;-81
2022/10/05 10:56:03;;;;;;;;;;;19.50;67.80;;;;;;5050401;28;20389;-80
2022/10/05 10:58:48;;;;;;;;;;;19.50;67.80;;;;;;5035479;28;19943;-81
2022/10/05 11:01:26;;;;;;;;;;;19.60;67.80;;;;;;5034919;28;19928;-80
2022/10/05 11:04:00;;;;;;;;;;;19.60;67.80;;;;;;5035427;28;20376;-80
2022/10/05 11:06:47;;;;;;;;;;;19.60;67.80;;;;;;5033464;28;19994;-80
2022/10/05 11:09:24;;;;;;;;;;;19.70;67.80;;;;;;5033364;28;19913;-81
2022/10/05 11:12:01;;;;;;;;;;;19.70;67.80;;;;;;5033786;28;19913;-80
2022/10/05 11:14:42;;;;;;;;;;;19.70;67.80;;;;;;5035494;28;19994;-80
2022/10/05 11:17:28;;;;;;;;;;;19.80;67.80;;;;;;5035216;28;20003;-80
2022/10/05 11:19:53;;;;;;;;;;;19.80;67.80;;;;;;5050759;28;20270;-80
2022/10/05 11:22:19;;;;;;;;;;;19.90;67.80;;;;;;5034522;28;19909;-79
2022/10/05 11:24:51;;;;;;;;;;;19.90;67.80;;;;;;5033197;28;20007;-80
2022/10/05 11:27:35;;;;;;;;;;;19.90;67.80;;;;;;5049547;28;19913;-80
2022/10/05 11:30:31;;;;;;;;;;;19.90;67.70;;;;;;5049541;28;19957;-81
2022/10/05 11:33:00;;;;;;;;;;;20.00;67.70;;;;;;5034439;28;19944;-81
2022/10/05 11:35:25;;;;;;;;;;;20.00;67.70;;;;;;5050281;28;19941;-81
2022/10/05 11:38:10;;;;;;;;;;;20.00;67.70;;;;;;5033243;28;19913;-80
2022/10/05 11:40:54;;;;;;;;;;;20.10;67.70;;;;;;5049882;28;19913;-81
2022/10/05 11:43:20;;;;;;;;;;;20.10;67.70;;;;;;5049326;28;19971;-81
2022/10/05 11:45:55;;;;;;;;;;;20.10;67.70;;;;;;5049315;28;19909;-81
2022/10/05 11:48:24;;;;;;;;;;;20.20;67.70;;;;;;5050042;28;19917;-81
2022/10/05 11:50:59;;;;;;;;;;;20.20;67.70;;;;;;5034426;28;19948;-81
2022/10/05 11:53:28;;;;;;;;;;;20.20;67.60;;;;;;5034009;28;19925;-81
2022/10/05 11:56:09;;;;;;;;;;;20.20;67.60;;;;;;5032738;28;19909;-83
2022/10/05 11:58:39;;;;;;;;;;;20.30;67.60;;;;;;5050216;28;19917;-83
2022/10/05 12:01:16;;;;;;;;;;;20.30;67.60;;;;;;5050264;28;20309;-84
2022/10/05 12:03:46;;;;;;;;;;;20.30;67.60;;;;;;5034387;28;19917;-83
2022/10/05 12:06:41;;;;;;;;;;;20.40;67.60;;;;;;5033257;28;19916;-84
2022/10/05 12:09:13;;;;;;;;;;;20.40;67.60;;;;;;5020303;28;19948;-81
2022/10/05 12:11:58;;;;;;;;;;;20.40;67.50;;;;;;5034132;28;19921;-81
2022/10/05 12:14:32;;;;;;;;;;;20.40;67.50;;;;;;5033348;28;19959;-83
2022/10/05 12:17:12;;;;;;;;;;;20.50;67.50;;;;;;5034629;28;19913;-82
2022/10/05 12:19:41;;;;;;;;;;;20.50;67.50;;;;;;5049817;28;19917;-83
2022/10/05 12:22:26;;;;;;;;;;;20.50;67.50;;;;;;5032834;28;19945;-83
2022/10/05 12:24:54;;;;;;;;;;;20.50;67.50;;;;;;5049700;28;20008;-83
2022/10/05 12:27:22;;;;;;;;;;;20.60;67.50;;;;;;5049170;28;19959;-84
2022/10/05 12:29:57;;;;;;;;;;;20.60;67.50;;;;;;5033668;28;19944;-83
2022/10/05 12:32:29;;;;;;;;;;;20.60;67.50;;;;;;5033220;28;19917;-84
2022/10/05 12:35:03;;;;;;;;;;;20.70;67.50;;;;;;5033796;28;19925;-84
2022/10/05 12:37:38;;;;;;;;;;;20.70;67.50;;;;;;5032720;28;19963;-84
2022/10/05 12:40:19;;;;;;;;;;;20.70;67.40;;;;;;5049377;28;19914;-83
2022/10/05 12:42:57;;;;;;;;;;;20.70;67.40;;;;;;5033152;28;19952;-83
2022/10/05 12:45:44;;;;;;;;;;;20.80;67.40;;;;;;5033496;28;20004;-83
2022/10/05 12:48:13;;;;;;;;;;;20.80;67.40;;;;;;5033550;28;20012;-83
2022/10/05 12:50:40;;;;;;;;;;;20.80;67.40;;;;;;5033782;28;19913;-84
2022/10/05 12:53:13;;;;;;;;;;;20.90;67.40;;;;;;5032772;28;20346;-83
2022/10/05 12:55:45;;;;;;;;;;;20.90;67.40;;;;;;5049116;28;19963;-82
2022/10/05 12:58:26;;;;;;;;;;;20.90;67.40;;;;;;5049303;28;20012;-84
2022/10/05 13:01:14;;;;;;;;;;;21.00;67.40;;;;;;5049107;28;19939;-84
2022/10/05 13:03:44;;;;;;;;;;;21.00;67.40;;;;;;5033407;28;20278;-83
2022/10/05 13:06:14;;;;;;;;;;;21.00;67.30;;;;;;5032802;28;20349;-84
2022/10/05 13:08:59;;;;;;;;;;;21.00;67.30;;;;;;5033998;28;19920;-83
2022/10/05 13:11:31;;;;;;;;;;;21.10;67.30;;;;;;5032069;28;20389;-83
2022/10/05 13:14:06;;;;;;;;;;;21.10;67.30;;;;;;5049278;28;19921;-81
2022/10/05 13:16:54;;;;;;;;;;;21.10;67.30;;;;;;5036967;28;20366;-84
2022/10/05 13:19:35;;;;;;;;;;;21.20;67.30;;;;;;5036083;28;19909;-84
2022/10/05 13:22:36;;;;;;;;;;;21.20;67.30;;;;;;5036225;28;19921;-84
2022/10/05 13:25:20;;;;;;;;;;;21.20;67.30;;;;;;4979366;28;20004;-83
2022/10/05 13:28:08;;;;;;;;;;;21.20;67.20;;;;;;5030841;28;19956;-82
2022/10/05 13:30:35;;;;;;;;;;;21.30;67.30;;;;;;5051834;28;19921;-83
2022/10/05 13:33:16;;;;;;;;;;;21.30;67.30;;;;;;5035862;28;19917;-83
2022/10/05 13:35:49;;;;;;;;;;;21.30;67.30;;;;;;5036254;28;20419;-83
2022/10/05 13:38:32;;;;;;;;;;;21.40;67.30;;;;;;5052150;28;19920;-84
2022/10/05 13:41:17;;;;;;;;;;;21.40;67.30;;;;;;5052133;28;19990;-83
2022/10/05 13:43:48;;;;;;;;;;;21.40;67.30;;;;;;5052588;28;20354;-83
2022/10/05 13:46:14;;;;;;;;;;;21.40;67.20;;;;;;5035975;28;19975;-82
2022/10/05 13:48:39;;;;;;;;;;;21.40;67.20;;;;;;5052183;28;19963;-83
2022/10/05 13:51:37;;;;;;;;;;;21.50;67.20;;;;;;5035169;28;19917;-82
2022/10/05 13:54:09;;;;;;;;;;;21.50;67.20;;;;;;4986228;28;19960;-82
2022/10/05 13:56:38;;;;;;;;;;;21.50;67.20;;;;;;5051752;28;19920;-80
2022/10/05 13:59:13;;;;;;;;;;;21.50;67.20;;;;;;5034804;28;19968;-81
2022/10/05 14:01:57;;;;;;;;;;;21.50;67.10;;;;;;5035369;28;19917;-81
2022/10/05 14:04:26;;;;;;;;;;;21.60;67.20;;;;;;5051635;28;19913;-81
2022/10/05 14:06:52;;;;;;;;;;;21.60;67.10;;;;;;5034497;28;19910;-81
2022/10/05 14:09:20;;;;;;;;;;;21.60;67.10;;;;;;5018006;28;20460;-81
2022/10/05 14:12:13;;;;;;;;;;;21.60;67.10;;;;;;5051556;28;20261;-82
2022/10/05 14:14:43;;;;;;;;;;;21.70;67.10;;;;;;5032721;28;20431;-81
2022/10/05 14:17:13;;;;;;;;;;;21.70;67.10;;;;;;5036608;28;20350;-81
2022/10/05 14:19:46;;;;;;;;;;;21.70;67.10;;;;;;5034997;28;19921;-82
2022/10/05 14:22:12;;;;;;;;;;;21.70;67.00;;;;;;5035414;28;19917;-81
2022/10/05 14:24:50;;;;;;;;;;;21.80;67.10;;;;;;5051650;28;19959;-82
2022/10/05 14:27:17;;;;;;;;;;;21.80;67.10;;;;;;5050777;28;19913;-83
2022/10/05 14:29:42;;;;;;;;;;;21.80;67.10;;;;;;5052066;28;19979;-84
2022/10/05 14:32:15;;;;;;;;;;;21.80;67.10;;;;;;5019018;28;19921;-81
2022/10/05 14:34:56;;;;;;;;;;;21.80;67.10;;;;;;5036151;28;19921;-82
2022/10/05 14:37:24;;;;;;;;;;;21.80;67.10;;;;;;5037565;28;19913;-82
2022/10/05 14:39:50;;;;;;;;;;;21.80;67.10;;;;;;5036409;28;19909;-83
2022/10/05 14:42:22;;;;;;;;;;;21.80;67.10;;;;;;5036229;28;20373;-84
2022/10/05 14:45:11;;;;;;;;;;;21.80;67.00;;;;;;5036566;28;19956;-82
2022/10/05 14:47:53;;;;;;;;;;;21.90;67.00;;;;;;5037817;28;19913;-83
2022/10/05 14:50:24;;;;;;;;;;;21.90;67.00;;;;;;5037222;28;19913;-83
2022/10/05 14:53:08;;;;;;;;;;;21.90;67.00;;;;;;5036846;28;20219;-82
2022/10/05 14:55:54;;;;;;;;;;;21.90;67.00;;;;;;5034803;28;20369;-83
2022/10/05 14:58:26;;;;;;;;;;;22.00;67.00;;;;;;5050945;28;19913;-82
2022/10/05 15:00:55;;;;;;;;;;;22.00;67.00;;;;;;5050656;28;19920;-83
2022/10/05 15:03:32;;;;;;;;;;;22.00;67.70;;;;;;5034591;28;19916;-82
2022/10/05 15:05:59;;;;;;;;;;;22.00;67.00;;;;;;5033972;28;19963;-82
2022/10/05 15:08:24;;;;;;;;;;;22.00;67.00;;;;;;5033502;28;19928;-81